createdAt,value
2017-06-12T00:00:32.596Z,57.51
2017-06-12T00:02:34.751Z,56.23
2017-06-12T00:04:36.561Z,56.16
2017-06-12T00:06:38.571Z,55.56
2017-06-12T00:08:40.404Z,55.66
2017-06-12T00:10:42.266Z,56.14
2017-06-12T00:12:44.085Z,55.66
2017-06-12T00:14:46.395Z,55.56
2017-06-12T00:16:48.259Z,55.76
2017-06-12T00:18:50.236Z,55.66
2017-06-12T00:20:52.101Z,55.66
2017-06-12T00:22:53.925Z,55.66
2017-06-12T00:24:55.865Z,55.56
2017-06-12T00:26:57.723Z,55.85
2017-06-12T00:28:59.556Z,55.34
2017-06-12T00:31:01.444Z,55.53
2017-06-12T00:33:03.411Z,55.82
2017-06-12T00:35:05.198Z,55.63
2017-06-12T00:37:07.030Z,55.91
2017-06-12T00:39:09.202Z,55.73
2017-06-12T00:41:11.007Z,55.44
2017-06-12T00:43:12.950Z,55.82
2017-06-12T00:45:14.846Z,56.40
2017-06-12T00:47:16.674Z,56.40
2017-06-12T00:49:18.954Z,56.11
2017-06-12T00:51:20.841Z,57.52
2017-06-12T00:53:22.842Z,57.81
2017-06-12T00:55:25.183Z,57.04
2017-06-12T00:57:27.141Z,57.14
2017-06-12T00:59:29.074Z,57.52
2017-06-12T01:01:30.979Z,57.14
2017-06-12T01:03:33.292Z,57.23
2017-06-12T01:05:35.345Z,57.04
2017-06-12T01:07:37.103Z,57.43
2017-06-12T01:09:39.325Z,57.81
2017-06-12T01:11:41.557Z,57.81
2017-06-12T01:13:43.750Z,58.39
2017-06-12T01:15:45.712Z,59.12
2017-06-12T01:17:47.690Z,59.32
2017-06-12T01:19:49.538Z,59.51
2017-06-12T01:21:51.375Z,59.61
2017-06-12T01:23:53.412Z,60.18
2017-06-12T01:25:55.302Z,59.80
2017-06-12T01:27:57.292Z,60.57
2017-06-12T01:29:59.045Z,59.70
2017-06-12T01:32:01.315Z,59.99
2017-06-12T01:34:03.686Z,60.75
2017-06-12T01:36:05.456Z,60.82
2017-06-12T01:38:07.426Z,60.28
2017-06-12T01:40:09.418Z,60.63
2017-06-12T01:42:11.214Z,60.92
2017-06-12T01:44:13.542Z,61.30
2017-06-12T01:46:15.297Z,61.49
2017-06-12T01:48:17.598Z,60.82
2017-06-12T01:50:19.511Z,61.69
2017-06-12T01:52:21.427Z,62.26
2017-06-12T01:54:23.293Z,62.07
2017-06-12T01:56:25.708Z,61.78
2017-06-12T01:58:27.994Z,62.84
2017-06-12T02:00:29.814Z,62.55
2017-06-12T02:02:31.929Z,62.07
2017-06-12T02:04:33.782Z,62.26
2017-06-12T02:06:35.570Z,62.36
2017-06-12T02:08:37.499Z,62.65
2017-06-12T02:10:39.364Z,62.84
2017-06-12T02:12:41.203Z,63.09
2017-06-12T02:14:43.612Z,63.96
2017-06-12T02:16:45.409Z,63.96
2017-06-12T02:18:47.432Z,63.96
2017-06-12T02:20:49.903Z,63.76
2017-06-12T02:22:52.198Z,63.99
2017-06-12T02:24:54.156Z,63.79
2017-06-12T02:26:55.912Z,63.99
2017-06-12T02:28:57.811Z,63.99
2017-06-12T02:31:00.096Z,64.05
2017-06-12T02:33:02.120Z,64.72
2017-06-12T02:35:04.428Z,64.82
2017-06-12T02:37:06.831Z,65.17
2017-06-12T02:39:08.655Z,64.92
2017-06-12T02:41:10.505Z,65.75
2017-06-12T02:43:12.433Z,65.84
2017-06-12T02:45:14.232Z,66.99
2017-06-12T02:47:16.020Z,67.18
2017-06-12T02:49:17.856Z,67.76
2017-06-12T02:51:19.753Z,67.28
2017-06-12T02:53:22.073Z,67.22
2017-06-12T02:55:23.775Z,67.28
2017-06-12T02:57:25.632Z,67.38
2017-06-12T02:59:27.646Z,67.66
2017-06-12T03:01:29.505Z,67.28
2017-06-12T03:03:31.802Z,67.47
2017-06-12T03:05:34.012Z,67.76
2017-06-12T03:07:35.791Z,68.05
2017-06-12T03:09:37.917Z,67.66
2017-06-12T03:11:40.126Z,68.33
2017-06-12T03:13:41.930Z,67.41
2017-06-12T03:15:44.429Z,67.66
2017-06-12T03:17:46.443Z,68.05
2017-06-12T03:19:48.263Z,67.76
2017-06-12T03:21:49.993Z,68.43
2017-06-12T03:23:51.758Z,68.43
2017-06-12T03:25:53.953Z,68.62
2017-06-12T03:27:55.873Z,68.43
2017-06-12T03:29:57.639Z,69.10
2017-06-12T03:31:59.540Z,69.48
2017-06-12T03:34:01.858Z,69.68
2017-06-12T03:36:03.648Z,69.10
2017-06-12T03:38:05.577Z,69.48
2017-06-12T03:40:07.867Z,69.10
2017-06-12T03:42:09.720Z,69.58
2017-06-12T03:44:12.044Z,69.17
2017-06-12T03:46:13.934Z,69.35
2017-06-12T03:48:15.838Z,69.54
2017-06-12T03:50:17.703Z,69.54
2017-06-12T03:52:19.668Z,69.39
2017-06-12T03:54:21.394Z,69.39
2017-06-12T03:56:23.779Z,69.58
2017-06-12T03:58:26.041Z,69.83
2017-06-12T04:00:28.339Z,69.87
2017-06-12T04:02:30.303Z,70.03
2017-06-12T04:04:32.348Z,70.03
2017-06-12T04:06:34.183Z,70.12
2017-06-12T04:08:36.097Z,70.50
2017-06-12T04:10:37.929Z,71.37
2017-06-12T04:12:40.341Z,71.08
2017-06-12T04:14:42.647Z,70.89
2017-06-12T04:16:44.512Z,71.46
2017-06-12T04:18:46.285Z,71.66
2017-06-12T04:20:48.364Z,71.94
2017-06-12T04:22:50.436Z,71.84
2017-06-12T04:24:52.365Z,72.42
2017-06-12T04:26:54.137Z,72.71
2017-06-12T04:28:56.124Z,72.71
2017-06-12T04:30:57.840Z,72.61
2017-06-12T04:32:59.782Z,72.27
2017-06-12T04:35:01.729Z,71.84
2017-06-12T04:37:03.526Z,72.84
2017-06-12T04:39:05.392Z,73.22
2017-06-12T04:41:07.988Z,73.76
2017-06-12T04:43:10.914Z,73.51
2017-06-12T04:45:12.609Z,73.61
2017-06-12T04:47:14.450Z,73.61
2017-06-12T04:49:16.319Z,72.94
2017-06-12T04:51:18.175Z,73.03
2017-06-12T04:53:20.681Z,73.03
2017-06-12T04:55:22.980Z,74.08
2017-06-12T04:57:25.311Z,73.61
2017-06-12T04:59:27.239Z,73.03
2017-06-12T05:01:29.094Z,73.90
2017-06-12T05:03:30.861Z,73.90
2017-06-12T05:05:32.696Z,74.18
2017-06-12T05:07:34.635Z,74.18
2017-06-12T05:09:36.495Z,74.43
2017-06-12T05:11:38.293Z,74.91
2017-06-12T05:13:40.151Z,74.91
2017-06-12T05:15:42.141Z,74.91
2017-06-12T05:17:43.860Z,74.62
2017-06-12T05:19:45.818Z,73.57
2017-06-12T05:21:47.584Z,74.08
2017-06-12T05:23:49.435Z,73.03
2017-06-12T05:25:51.566Z,73.03
2017-06-12T05:27:53.383Z,73.13
2017-06-12T05:29:55.653Z,73.13
2017-06-12T05:31:57.507Z,72.55
2017-06-12T05:33:59.444Z,72.36
2017-06-12T05:36:01.443Z,72.55
2017-06-12T05:38:03.183Z,71.88
2017-06-12T05:40:05.105Z,71.53
2017-06-12T05:42:07.017Z,71.34
2017-06-12T05:44:09.345Z,70.51
2017-06-12T05:46:11.076Z,69.17
2017-06-12T05:48:12.967Z,68.05
2017-06-12T05:50:14.896Z,65.75
2017-06-12T05:52:16.688Z,64.98
2017-06-12T05:54:18.876Z,65.27
2017-06-12T05:56:20.647Z,66.03
2017-06-12T05:58:22.444Z,63.89
2017-06-12T06:00:24.390Z,63.28
2017-06-12T06:02:26.663Z,60.46
2017-06-12T06:04:28.493Z,58.12
2017-06-12T06:06:30.266Z,55.29
2017-06-12T06:08:32.592Z,54.54
2017-06-12T06:10:34.334Z,52.09
2017-06-12T06:12:36.203Z,51.03
2017-06-12T06:14:38.049Z,49.87
2017-06-12T06:16:40.021Z,52.35
2017-06-12T06:18:41.947Z,53.48
2017-06-12T06:20:44.081Z,52.81
2017-06-12T06:22:46.394Z,52.83
2017-06-12T06:24:48.411Z,53.03
2017-06-12T06:26:50.122Z,51.70
2017-06-12T06:28:52.017Z,49.58
2017-06-12T06:30:53.777Z,49.12
2017-06-12T06:32:55.726Z,48.08
2017-06-12T06:34:57.562Z,47.63
2017-06-12T06:36:59.449Z,46.58
2017-06-12T06:39:01.637Z,47.58
2017-06-12T06:41:03.383Z,47.89
2017-06-12T06:43:05.331Z,47.77
2017-06-12T06:45:07.127Z,49.22
2017-06-12T06:47:09.409Z,51.58
2017-06-12T06:49:11.241Z,52.33
2017-06-12T06:51:12.986Z,54.39
2017-06-12T06:53:15.230Z,57.29
2017-06-12T06:55:17.348Z,60.14
2017-06-12T06:57:19.153Z,61.75
2017-06-12T06:59:21.486Z,63.54
2017-06-12T07:01:23.480Z,64.89
2017-06-12T07:03:25.802Z,65.05
2017-06-12T07:05:28.073Z,65.81
2017-06-12T07:07:30.054Z,65.84
2017-06-12T07:09:31.894Z,64.15
2017-06-12T07:11:33.735Z,62.04
2017-06-12T07:13:35.739Z,64.05
2017-06-12T07:15:37.574Z,64.63
2017-06-12T07:17:39.819Z,64.43
2017-06-12T07:19:42.150Z,64.25
2017-06-12T07:21:44.385Z,63.60
2017-06-12T07:23:46.545Z,61.14
2017-06-12T07:25:48.290Z,59.85
2017-06-12T07:27:50.457Z,58.86
2017-06-12T07:29:52.659Z,60.01
2017-06-12T07:31:54.520Z,60.27
2017-06-12T07:33:56.362Z,60.63
2017-06-12T07:35:58.234Z,61.58
2017-06-12T07:38:00.459Z,61.55
2017-06-12T07:40:02.365Z,61.65
2017-06-12T07:42:04.786Z,62.13
2017-06-12T07:44:06.510Z,63.35
2017-06-12T07:46:08.527Z,64.76
2017-06-12T07:48:10.306Z,63.99
2017-06-12T07:50:12.171Z,64.66
2017-06-12T07:52:14.174Z,64.85
2017-06-12T07:54:16.021Z,64.76
2017-06-12T07:56:17.932Z,64.85
2017-06-12T07:58:19.988Z,65.23
2017-06-12T08:00:21.663Z,65.23
2017-06-12T08:02:23.961Z,65.05
2017-06-12T08:04:25.810Z,65.23
2017-06-12T08:06:27.713Z,65.91
2017-06-12T08:08:30.101Z,66.49
2017-06-12T08:10:31.910Z,65.91
2017-06-12T08:12:33.795Z,65.65
2017-06-12T08:14:35.719Z,64.98
2017-06-12T08:16:37.711Z,64.92
2017-06-12T08:18:40.009Z,64.43
2017-06-12T08:20:41.981Z,63.48
2017-06-12T08:22:44.325Z,63.28
2017-06-12T08:24:46.273Z,62.99
2017-06-12T08:26:48.029Z,63.28
2017-06-12T08:28:49.882Z,63.57
2017-06-12T08:30:51.803Z,63.28
2017-06-12T08:32:53.745Z,63.83
2017-06-12T08:34:56.011Z,64.40
2017-06-12T08:36:58.009Z,64.59
2017-06-12T08:38:59.817Z,64.02
2017-06-12T08:41:02.389Z,65.05
2017-06-12T08:43:04.220Z,65.14
2017-06-12T08:45:06.373Z,66.10
2017-06-12T08:47:08.279Z,66.52
2017-06-12T08:49:10.456Z,64.69
2017-06-12T08:51:12.486Z,65.27
2017-06-12T08:53:15.586Z,65.94
2017-06-12T08:55:17.463Z,66.71
2017-06-12T08:57:19.871Z,66.52
2017-06-12T08:59:22.400Z,66.46
2017-06-12T09:01:24.489Z,65.84
2017-06-12T09:03:26.606Z,65.94
2017-06-12T09:05:29.294Z,65.97
2017-06-12T09:07:31.048Z,65.59
2017-06-12T09:09:33.110Z,64.63
2017-06-12T09:11:35.418Z,64.18
2017-06-12T09:13:37.593Z,62.16
2017-06-12T09:15:39.500Z,61.87
2017-06-12T09:17:41.327Z,61.40
2017-06-12T09:19:43.374Z,62.16
2017-06-12T09:21:45.368Z,62.13
2017-06-12T09:23:47.367Z,63.09
2017-06-12T09:25:49.724Z,62.81
2017-06-12T09:27:51.855Z,63.19
2017-06-12T09:29:53.916Z,63.02
2017-06-12T09:31:55.653Z,61.97
2017-06-12T09:33:57.863Z,60.24
2017-06-12T09:36:00.024Z,62.26
2017-06-12T09:38:02.280Z,61.01
2017-06-12T09:40:10.328Z,59.22
2017-06-12T09:42:13.778Z,59.31
2017-06-12T09:44:15.617Z,58.73
2017-06-12T09:46:17.354Z,57.29
2017-06-12T09:48:19.117Z,58.13
2017-06-12T09:50:21.067Z,58.89
2017-06-12T09:52:23.119Z,59.66
2017-06-12T09:54:25.003Z,59.09
2017-06-12T09:56:27.083Z,59.76
2017-06-12T09:58:29.259Z,61.49
2017-06-12T10:00:31.589Z,58.73
2017-06-12T10:02:33.476Z,57.48
2017-06-12T10:04:35.907Z,56.71
2017-06-12T10:06:37.856Z,59.02
2017-06-12T10:08:39.753Z,58.99
2017-06-12T10:10:41.663Z,59.19
2017-06-12T10:12:43.704Z,59.83
2017-06-12T10:14:46.196Z,61.27
2017-06-12T10:16:48.020Z,61.14
2017-06-12T10:18:49.793Z,62.29
2017-06-12T10:20:51.548Z,61.81
2017-06-12T10:22:53.386Z,61.62
2017-06-12T10:24:55.930Z,60.38
2017-06-12T10:26:57.758Z,61.43
2017-06-12T10:28:59.630Z,62.23
2017-06-12T10:31:01.487Z,60.98
2017-06-12T10:33:03.194Z,61.11
2017-06-12T10:35:04.771Z,60.24
2017-06-12T10:37:06.598Z,59.28
2017-06-12T10:39:08.477Z,57.17
2017-06-12T10:41:10.296Z,57.36
2017-06-12T10:43:12.658Z,57.23
2017-06-12T10:45:14.486Z,58.58
2017-06-12T10:47:16.043Z,58.77
2017-06-12T10:49:17.904Z,59.54
2017-06-12T10:51:20.203Z,59.73
2017-06-12T10:53:22.071Z,59.64
2017-06-12T10:55:23.827Z,60.98
2017-06-12T10:57:25.995Z,60.21
2017-06-12T10:59:27.685Z,60.40
2017-06-12T11:01:29.504Z,59.92
2017-06-12T11:03:31.439Z,59.34
2017-06-12T11:05:33.355Z,58.87
2017-06-12T11:07:35.592Z,59.16
2017-06-12T11:09:37.729Z,58.48
2017-06-12T11:11:39.966Z,59.61
2017-06-12T11:13:42.140Z,59.70
2017-06-12T11:15:44.076Z,60.95
2017-06-12T11:17:45.878Z,61.72
2017-06-12T11:19:47.802Z,60.66
2017-06-12T11:21:49.672Z,60.95
2017-06-12T11:23:51.817Z,61.33
2017-06-12T11:25:54.112Z,60.47
2017-06-12T11:27:56.020Z,61.14
2017-06-12T11:29:58.668Z,60.98
2017-06-12T11:32:01.370Z,59.54
2017-06-12T11:34:03.347Z,59.73
2017-06-12T11:36:05.981Z,60.24
2017-06-12T11:38:08.168Z,59.19
2017-06-12T11:40:10.049Z,60.91
2017-06-12T11:42:11.820Z,61.01
2017-06-12T11:44:13.768Z,59.86
2017-06-12T11:46:15.353Z,59.76
2017-06-12T11:48:16.864Z,61.30
2017-06-12T11:50:18.655Z,59.38
2017-06-12T11:52:20.511Z,60.14
2017-06-12T11:54:23.302Z,60.98
2017-06-12T11:56:25.507Z,60.50
2017-06-12T11:58:27.414Z,60.78
2017-06-12T12:00:29.520Z,60.69
2017-06-12T12:02:31.380Z,59.66
2017-06-12T12:04:33.018Z,58.61
2017-06-12T12:06:34.794Z,59.02
2017-06-12T12:08:36.911Z,59.44
2017-06-12T12:10:38.566Z,58.95
2017-06-12T12:12:40.912Z,58.95
2017-06-12T12:14:43.107Z,54.14
2017-06-12T12:16:44.822Z,54.50
2017-06-12T12:18:46.996Z,54.79
2017-06-12T12:20:48.908Z,55.63
2017-06-12T12:22:50.811Z,56.62
2017-06-12T12:24:52.683Z,55.85
2017-06-12T12:26:54.452Z,55.66
2017-06-12T12:28:56.259Z,55.76
2017-06-12T12:30:58.117Z,55.73
2017-06-12T12:32:59.801Z,55.66
2017-06-12T12:35:01.607Z,55.94
2017-06-12T12:37:03.970Z,56.33
2017-06-12T12:39:05.768Z,58.64
2017-06-12T12:41:07.688Z,56.16
2017-06-12T12:43:10.124Z,55.08
2017-06-12T12:45:11.947Z,55.85
2017-06-12T12:47:13.691Z,56.62
2017-06-12T12:49:15.642Z,57.10
2017-06-12T12:51:17.388Z,57.77
2017-06-12T12:53:19.167Z,58.03
2017-06-12T12:55:21.361Z,58.25
2017-06-12T12:57:23.898Z,58.13
2017-06-12T12:59:25.674Z,57.26
2017-06-12T13:01:27.586Z,58.03
2017-06-12T13:03:29.471Z,57.36
2017-06-12T13:05:31.295Z,58.92
2017-06-12T13:07:32.868Z,57.00
2017-06-12T13:09:34.454Z,54.79
2017-06-12T13:11:36.501Z,54.96
2017-06-12T13:13:38.376Z,54.96
2017-06-12T13:15:40.216Z,56.01
2017-06-12T13:17:42.288Z,56.30
2017-06-12T13:19:45.568Z,55.91
2017-06-12T13:21:47.018Z,56.49
2017-06-12T13:23:48.996Z,55.24
2017-06-12T13:25:51.133Z,55.91
2017-06-12T13:27:53.009Z,56.68
2017-06-12T13:29:54.739Z,56.37
2017-06-12T13:31:56.563Z,56.68
2017-06-12T13:33:58.430Z,57.84
2017-06-12T13:35:59.977Z,54.96
2017-06-12T13:38:01.524Z,54.96
2017-06-12T13:40:03.323Z,54.00
2017-06-12T13:42:05.354Z,55.63
2017-06-12T13:44:07.192Z,55.44
2017-06-12T13:46:09.010Z,55.05
2017-06-12T13:48:10.729Z,56.21
2017-06-12T13:50:12.457Z,55.63
2017-06-12T13:52:14.015Z,55.73
2017-06-12T13:54:15.512Z,56.59
2017-06-12T13:56:17.338Z,55.63
2017-06-12T13:58:19.195Z,56.01
2017-06-12T14:00:21.853Z,55.15
2017-06-12T14:02:22.675Z,55.53
2017-06-12T14:04:24.352Z,54.31
2017-06-12T14:06:26.283Z,54.67
2017-06-12T14:08:28.096Z,55.63
2017-06-12T14:10:29.921Z,55.44
2017-06-12T14:12:31.791Z,56.01
2017-06-12T14:14:34.333Z,55.44
2017-06-12T14:16:35.900Z,54.67
2017-06-12T14:18:38.730Z,54.67
2017-06-12T14:20:41.054Z,54.38
2017-06-12T14:22:42.903Z,54.86
2017-06-12T14:24:44.705Z,54.09
2017-06-12T14:26:46.394Z,54.67
2017-06-12T14:28:48.082Z,54.86
2017-06-12T14:30:50.672Z,54.67
2017-06-12T14:32:55.154Z,55.44
2017-06-12T14:34:56.811Z,55.34
2017-06-12T14:36:58.352Z,54.86
2017-06-12T14:39:00.274Z,55.05
2017-06-12T14:41:02.257Z,55.82
2017-06-12T14:43:04.019Z,54.02
2017-06-12T14:45:05.742Z,54.60
2017-06-12T14:47:08.371Z,55.08
2017-06-12T14:49:11.872Z,54.60
2017-06-12T14:51:13.635Z,55.18
2017-06-12T14:53:15.379Z,55.85
2017-06-12T14:55:17.825Z,55.66
2017-06-12T14:57:19.562Z,55.27
2017-06-12T14:59:22.003Z,54.79
2017-06-12T15:01:23.649Z,54.50
2017-06-12T15:03:25.936Z,54.41
2017-06-12T15:05:28.065Z,54.89
2017-06-12T15:07:29.910Z,55.66
2017-06-12T15:09:31.499Z,54.69
2017-06-12T15:11:33.117Z,54.82
2017-06-12T15:13:35.124Z,53.66
2017-06-12T15:15:36.647Z,53.35
2017-06-12T15:17:39.005Z,54.00
2017-06-12T15:19:40.591Z,54.09
2017-06-12T15:21:42.189Z,53.80
2017-06-12T15:23:44.074Z,54.31
2017-06-12T15:25:45.574Z,54.89
2017-06-12T15:27:47.171Z,54.22
2017-06-12T15:29:48.674Z,53.74
2017-06-12T15:31:50.438Z,54.22
2017-06-12T15:33:52.220Z,53.76
2017-06-12T15:35:53.998Z,53.45
2017-06-12T15:37:55.796Z,54.31
2017-06-12T15:39:57.588Z,54.79
2017-06-12T15:41:59.399Z,54.89
2017-06-12T15:44:01.113Z,53.64
2017-06-12T15:46:03.305Z,53.92
2017-06-12T15:48:05.675Z,53.45
2017-06-12T15:50:07.162Z,54.22
2017-06-12T15:52:08.671Z,54.79
2017-06-12T15:54:10.173Z,54.60
2017-06-12T15:56:11.967Z,53.92
2017-06-12T15:58:13.733Z,54.50
2017-06-12T16:00:15.494Z,54.86
2017-06-12T16:02:17.311Z,55.05
2017-06-12T16:04:19.081Z,55.76
2017-06-12T16:06:20.921Z,56.04
2017-06-12T16:08:22.777Z,56.33
2017-06-12T16:10:24.643Z,54.57
2017-06-12T16:12:26.391Z,54.67
2017-06-12T16:14:28.130Z,55.53
2017-06-12T16:16:30.038Z,54.67
2017-06-12T16:18:31.828Z,54.86
2017-06-12T16:20:33.772Z,56.01
2017-06-12T16:22:35.554Z,55.46
2017-06-12T16:24:37.244Z,55.56
2017-06-12T16:26:39.107Z,54.86
2017-06-12T16:28:40.861Z,54.77
2017-06-12T16:30:42.654Z,55.66
2017-06-12T16:32:44.501Z,54.79
2017-06-12T16:34:46.279Z,54.60
2017-06-12T16:36:48.191Z,54.41
2017-06-12T16:38:49.954Z,53.83
2017-06-12T16:40:51.761Z,54.77
2017-06-12T16:42:53.500Z,54.86
2017-06-12T16:44:55.327Z,55.63
2017-06-12T16:46:57.158Z,55.73
2017-06-12T16:48:59.084Z,55.53
2017-06-12T16:51:00.902Z,55.63
2017-06-12T16:53:02.760Z,55.63
2017-06-12T16:55:04.257Z,55.34
2017-06-12T16:57:05.878Z,55.76
2017-06-12T16:59:07.456Z,54.77
2017-06-12T17:01:09.073Z,55.53
2017-06-12T17:03:10.786Z,56.01
2017-06-12T17:05:12.460Z,56.40
2017-06-12T17:07:15.653Z,55.91
2017-06-12T17:09:17.523Z,56.91
2017-06-12T17:11:19.306Z,56.49
2017-06-12T17:13:21.053Z,55.73
2017-06-12T17:15:22.923Z,55.91
2017-06-12T17:17:24.736Z,55.91
2017-06-12T17:19:26.377Z,56.59
2017-06-12T17:21:27.942Z,57.45
2017-06-12T17:23:29.480Z,56.98
2017-06-12T17:25:32.532Z,57.23
2017-06-12T17:27:34.242Z,56.95
2017-06-12T17:29:36.017Z,57.43
2017-06-12T17:32:19.870Z,56.98
2017-06-12T17:34:21.480Z,57.26
2017-06-12T17:36:23.238Z,57.45
2017-06-12T17:38:25.249Z,57.65
2017-06-12T17:40:27.778Z,56.49
2017-06-12T17:42:29.890Z,55.82
2017-06-12T17:44:31.795Z,53.90
2017-06-12T17:46:33.606Z,55.53
2017-06-12T17:48:35.401Z,55.82
2017-06-12T17:50:37.210Z,55.44
2017-06-12T17:52:39.029Z,55.46
2017-06-12T17:54:41.057Z,55.85
2017-06-12T17:56:43.167Z,55.18
2017-06-12T17:58:44.981Z,54.60
2017-06-12T18:00:46.990Z,55.08
2017-06-12T18:02:48.907Z,54.41
2017-06-12T18:04:50.424Z,54.96
2017-06-12T18:06:52.489Z,55.82
2017-06-12T18:08:54.245Z,55.15
2017-06-12T18:10:56.133Z,55.15
2017-06-12T18:12:57.809Z,55.73
2017-06-12T18:14:59.862Z,55.53
2017-06-12T18:17:01.730Z,56.98
2017-06-12T18:19:03.500Z,55.63
2017-06-12T18:21:05.444Z,55.82
2017-06-12T18:23:07.273Z,55.89
2017-06-12T18:25:09.039Z,56.56
2017-06-12T18:27:10.842Z,57.14
2017-06-12T18:29:12.647Z,57.62
2017-06-12T18:31:14.604Z,58.67
2017-06-12T18:33:17.182Z,57.90
2017-06-12T18:35:18.967Z,57.90
2017-06-12T18:37:21.494Z,58.58
2017-06-12T18:39:23.687Z,58.48
2017-06-12T18:41:25.509Z,58.58
2017-06-12T18:43:27.387Z,59.34
2017-06-12T18:45:29.148Z,58.13
2017-06-12T18:47:30.993Z,57.71
2017-06-12T18:49:32.794Z,57.90
2017-06-12T18:51:34.639Z,58.10
2017-06-12T18:53:37.385Z,58.67
2017-06-12T18:56:20.289Z,57.81
2017-06-12T18:58:21.951Z,58.29
2017-06-12T19:00:23.576Z,58.48
2017-06-12T19:02:25.897Z,58.77
2017-06-12T19:04:27.645Z,58.67
2017-06-12T19:06:29.403Z,58.96
2017-06-12T19:08:31.165Z,58.58
2017-06-12T19:10:33.455Z,58.67
2017-06-12T19:12:35.870Z,59.34
2017-06-12T19:14:37.631Z,59.16
2017-06-12T19:16:39.865Z,58.96
2017-06-12T19:18:42.161Z,58.48
2017-06-12T19:20:44.275Z,58.58
2017-06-12T19:22:46.121Z,59.70
2017-06-12T19:24:48.408Z,59.89
2017-06-12T19:26:50.257Z,59.61
2017-06-12T19:28:53.122Z,59.73
2017-06-12T19:30:54.879Z,59.92
2017-06-12T19:32:56.978Z,58.87
2017-06-12T19:34:58.628Z,59.03
2017-06-12T19:37:00.376Z,59.89
2017-06-12T19:39:02.075Z,59.61
2017-06-12T19:41:03.862Z,59.44
2017-06-12T19:43:06.215Z,59.06
2017-06-12T19:45:08.387Z,60.02
2017-06-12T19:47:10.221Z,59.25
2017-06-12T19:49:12.498Z,59.12
2017-06-12T19:51:14.250Z,59.51
2017-06-12T19:53:16.127Z,60.02
2017-06-12T19:55:18.524Z,59.54
2017-06-12T19:57:20.380Z,59.12
2017-06-12T19:59:22.327Z,59.89
2017-06-12T20:01:23.951Z,59.32
2017-06-12T20:03:26.118Z,59.61
2017-06-12T20:05:27.972Z,59.32
2017-06-12T20:07:29.854Z,59.80
2017-06-12T20:09:31.720Z,59.61
2017-06-12T20:11:33.831Z,59.80
2017-06-12T20:13:35.670Z,59.80
2017-06-12T20:15:37.448Z,59.80
2017-06-12T20:17:39.276Z,59.41
2017-06-12T20:19:41.045Z,60.08
2017-06-12T20:21:43.105Z,60.08
2017-06-12T20:23:44.959Z,59.80
2017-06-12T20:25:46.928Z,59.67
2017-06-12T20:27:49.432Z,59.80
2017-06-12T20:29:51.206Z,60.18
2017-06-12T20:31:53.271Z,60.18
2017-06-12T20:33:59.389Z,59.70
2017-06-12T20:36:01.186Z,59.61
2017-06-12T20:38:03.147Z,59.61
2017-06-12T20:40:05.063Z,59.41
2017-06-12T20:42:07.026Z,59.70
2017-06-12T20:44:08.698Z,59.80
2017-06-12T20:46:11.409Z,61.05
2017-06-12T20:48:13.249Z,60.47
2017-06-12T20:50:15.272Z,60.08
2017-06-12T20:52:16.976Z,61.05
2017-06-12T20:54:19.838Z,61.05
2017-06-12T20:56:21.481Z,60.82
2017-06-12T20:58:23.343Z,61.11
2017-06-12T21:00:25.150Z,61.78
2017-06-12T21:02:26.859Z,62.26
2017-06-12T21:04:28.739Z,62.55
2017-06-12T21:06:30.499Z,62.45
2017-06-12T21:08:32.551Z,62.45
2017-06-12T21:10:34.436Z,62.07
2017-06-12T21:12:36.406Z,62.74
2017-06-12T21:14:38.253Z,62.84
2017-06-12T21:16:40.418Z,62.55
2017-06-12T21:18:42.236Z,63.12
2017-06-12T21:20:44.439Z,63.12
2017-06-12T21:22:46.264Z,63.03
2017-06-12T21:24:48.691Z,62.93
2017-06-12T21:26:50.424Z,62.07
2017-06-12T21:28:52.104Z,62.65
2017-06-12T21:30:53.786Z,62.93
2017-06-12T21:32:55.459Z,63.12
2017-06-12T21:34:57.117Z,63.79
2017-06-12T21:36:59.293Z,63.42
2017-06-12T21:39:01.502Z,63.42
2017-06-12T21:41:03.782Z,63.79
2017-06-12T21:43:05.662Z,63.60
2017-06-12T21:45:07.366Z,63.96
2017-06-12T21:47:09.214Z,63.86
2017-06-12T21:49:10.961Z,64.15
2017-06-12T21:51:12.809Z,64.15
2017-06-12T21:53:14.539Z,64.82
2017-06-12T21:55:16.451Z,64.15
2017-06-12T21:57:18.322Z,64.25
2017-06-12T21:59:20.083Z,64.28
2017-06-12T22:01:21.943Z,64.47
2017-06-12T22:03:23.745Z,64.28
2017-06-12T22:05:25.596Z,64.05
2017-06-12T22:07:27.579Z,64.72
2017-06-12T22:09:29.279Z,64.72
2017-06-12T22:11:31.161Z,64.72
2017-06-12T22:13:33.024Z,65.20
2017-06-12T22:15:34.772Z,64.63
2017-06-12T22:17:36.519Z,64.63
2017-06-12T22:19:38.440Z,65.30
2017-06-12T22:21:40.209Z,65.01
2017-06-12T22:23:42.005Z,64.92
2017-06-12T22:25:43.791Z,65.97
2017-06-12T22:27:45.630Z,66.16
2017-06-12T22:29:47.385Z,65.68
2017-06-12T22:31:49.180Z,66.35
2017-06-12T22:33:50.996Z,65.97
2017-06-12T22:35:52.916Z,66.93
2017-06-12T22:37:54.643Z,66.74
2017-06-12T22:39:56.388Z,67.38
2017-06-12T22:41:58.243Z,67.28
2017-06-12T22:44:00.041Z,67.50
2017-06-12T22:46:01.932Z,67.22
2017-06-12T22:48:03.749Z,67.02
2017-06-12T22:50:05.464Z,66.74
2017-06-12T22:52:07.557Z,67.09
2017-06-12T22:54:09.276Z,67.60
2017-06-12T22:56:10.932Z,67.69
2017-06-12T22:58:12.580Z,67.41
2017-06-12T23:00:14.167Z,67.60
2017-06-12T23:02:16.033Z,67.41
2017-06-12T23:04:17.924Z,67.50
2017-06-12T23:06:19.848Z,67.60
2017-06-12T23:08:21.566Z,67.99
2017-06-12T23:10:23.475Z,68.08
2017-06-12T23:12:25.367Z,67.99
2017-06-12T23:14:27.163Z,68.46
2017-06-12T23:16:28.911Z,68.37
2017-06-12T23:18:30.835Z,68.46
2017-06-12T23:20:32.576Z,68.46
2017-06-12T23:22:34.457Z,68.43
2017-06-12T23:24:36.411Z,69.20
2017-06-12T23:26:38.334Z,69.01
2017-06-12T23:28:40.120Z,69.29
2017-06-12T23:30:41.865Z,69.20
2017-06-12T23:32:43.767Z,68.85
2017-06-12T23:34:45.790Z,68.24
2017-06-12T23:36:47.729Z,69.01
2017-06-12T23:38:49.642Z,69.39
2017-06-12T23:40:51.606Z,69.39
2017-06-12T23:42:53.518Z,69.58
2017-06-12T23:44:55.214Z,69.87
2017-06-12T23:46:57.084Z,69.29
2017-06-12T23:48:58.880Z,69.58
2017-06-12T23:51:00.652Z,69.20
2017-06-12T23:53:02.575Z,70.06
2017-06-12T23:55:04.402Z,69.23
2017-06-12T23:57:06.355Z,68.75
2017-06-12T23:59:08.286Z,68.46
